Quick Links (Output Below):   Max & Min Temps   /   Climate Reports   /   Zone Forecasts
River Forecasts   /   Forestry Forecasts   /   Aviation Forecasts   /   Radars   /   Features

Terminal Aerodrome Forecast (Fayetteville)

Pick a Site:
Arkadelphia | El Dorado | Fayetteville | Fort Smith | Harrison | Highfill | Hot Springs | Jonesboro
Little Rock | Monticello | Mountain Home | Pine Bluff | Texarkana
 Forecast 

KFYV 312329Z 0100/0124 VRB03KT P6SM VCSH OVC100
     FM010900 00000KT P6SM OVC025
     FM011200 00000KT P6SM VCSH OVC015 PROB30 0112/0118 4SM -SHRA
      OVC007
     FM011800 01005KT P6SM OVC040=


 Latest METARs (Observations) 
How to Decode METARs
01Z KFYV 010053Z 00000KT 10SM FEW037 24/22 A3001 RMK AO2 SLP151
         T02440222
         
00Z KFYV 312353Z 23005KT 10SM SCT050 26/22 A3001 RMK AO2 LTG DSNT SE
         SLP149 T02610222 10317 20261 58002
         
***** Today's Observations (Above) *****


23Z KFYV 312253Z 07003KT 10SM CLR 28/22 A3002 RMK AO2 LTG DSNT SE-W
         SLP152 T02780222
         
22Z KFYV 312153Z 05003KT 10SM CLR 29/22 A3003 RMK AO2 LTG DSNT SW
         SLP153 T02890217
         
21Z KFYV 312053Z 01005KT 10SM FEW031 SCT042 29/23 A3002 RMK AO2 SLP150
         T02890228 56015
         
20Z KFYV 311953Z VRB04KT 10SM FEW047 BKN055 29/23 A3002 RMK AO2 SLP151
         T02890228
         
19Z KFYV 311853Z VRB04KT 10SM CLR 31/20 A3005 RMK AO2 SLP158
         T03060200
         
18Z KFYV 311753Z VRB03KT 10SM CLR 31/22 A3006 RMK AO2 SLP163 T03060217
         10306 20183 58013
         
17Z KFYV 311653Z 08004KT 10SM FEW033 SCT120 28/21 A3009 RMK AO2 SLP174
         T02830206
         
16Z KFYV 311553Z 09003KT 10SM SCT031 SCT038 27/23 A3010 RMK AO2 SLP178
         T02720228
         
***** Yesterday's Observations (Above) *****


Back to Main Page
http://www.srh.noaa.gov/lzk/qfcst.php

USA.gov is the U.S. government's official web portal to all federal, state and local government web resources and services.